createdAt,value
2019-03-21T00:01:23.987Z,79.00
2019-03-21T00:03:58.567Z,79.30
2019-03-21T00:06:31.682Z,79.60
2019-03-21T00:09:06.014Z,79.80
2019-03-21T00:12:02.443Z,79.90
2019-03-21T00:14:39.650Z,80.00
2019-03-21T00:17:12.181Z,80.30
2019-03-21T00:19:42.911Z,80.00
2019-03-21T00:22:13.682Z,80.20
2019-03-21T00:24:44.409Z,80.60
2019-03-21T00:27:15.248Z,80.50
2019-03-21T00:29:45.996Z,80.40
2019-03-21T00:32:16.853Z,80.10
2019-03-21T00:34:47.943Z,80.50
2019-03-21T00:37:18.607Z,80.70
2019-03-21T00:39:49.389Z,80.40
2019-03-21T00:42:20.119Z,80.70
2019-03-21T00:44:50.933Z,80.50
2019-03-21T00:47:21.762Z,80.40
2019-03-21T00:49:52.509Z,80.90
2019-03-21T00:52:26.797Z,81.00
2019-03-21T00:54:57.469Z,81.40
2019-03-21T00:57:28.119Z,81.20
2019-03-21T00:59:58.813Z,81.20
2019-03-21T01:02:29.533Z,81.60
2019-03-21T01:05:00.380Z,81.70
2019-03-21T01:07:31.240Z,81.90
2019-03-21T01:10:01.815Z,81.90
2019-03-21T01:12:32.579Z,81.70
2019-03-21T01:15:03.218Z,82.20
2019-03-21T01:17:34.401Z,82.60
2019-03-21T01:20:07.521Z,82.80
2019-03-21T01:22:38.113Z,83.10
2019-03-21T01:25:11.093Z,82.90
2019-03-21T01:27:41.774Z,83.20
2019-03-21T01:30:13.919Z,83.60
2019-03-21T01:32:44.536Z,83.70
2019-03-21T01:35:16.416Z,83.70
2019-03-21T01:37:47.061Z,84.00
2019-03-21T01:40:20.604Z,84.30
2019-03-21T01:42:51.443Z,84.50
2019-03-21T01:45:25.133Z,84.60
2019-03-21T01:47:56.183Z,84.90
2019-03-21T01:50:27.153Z,85.30
2019-03-21T01:52:57.851Z,85.50
2019-03-21T01:55:28.485Z,85.60
2019-03-21T01:57:59.270Z,85.20
2019-03-21T02:00:33.610Z,85.30
2019-03-21T02:03:04.371Z,85.70
2019-03-21T02:05:35.183Z,86.00
2019-03-21T02:08:05.949Z,86.00
2019-03-21T02:10:36.840Z,86.10
2019-03-21T02:13:07.643Z,86.40
2019-03-21T02:15:38.437Z,86.70
2019-03-21T02:18:09.270Z,86.90
2019-03-21T02:20:39.989Z,87.40
2019-03-21T02:23:11.114Z,87.10
2019-03-21T02:25:41.673Z,87.30
2019-03-21T02:28:12.501Z,87.50
2019-03-21T02:30:43.185Z,87.60
2019-03-21T02:33:23.323Z,87.80
2019-03-21T02:35:53.964Z,88.00
2019-03-21T02:38:24.762Z,88.50
2019-03-21T02:40:55.702Z,88.40
2019-03-21T02:43:26.392Z,88.70
2019-03-21T02:45:57.206Z,88.90
2019-03-21T02:48:27.921Z,89.10
2019-03-21T02:50:58.433Z,89.30
2019-03-21T02:53:29.182Z,89.60
2019-03-21T02:55:59.840Z,89.70
2019-03-21T02:58:30.656Z,89.90
2019-03-21T03:01:01.394Z,90.10
2019-03-21T03:03:32.073Z,90.10
2019-03-21T03:06:02.733Z,90.10
2019-03-21T03:08:33.427Z,90.20
2019-03-21T03:11:05.170Z,90.20
2019-03-21T03:13:35.964Z,90.20
2019-03-21T03:16:06.659Z,90.40
2019-03-21T03:18:39.521Z,90.40
2019-03-21T03:21:10.101Z,90.50
2019-03-21T03:23:40.681Z,90.50
2019-03-21T03:26:11.403Z,90.50
2019-03-21T03:28:44.612Z,90.60
2019-03-21T03:31:16.592Z,90.70
2019-03-21T03:33:47.307Z,90.90
2019-03-21T03:36:17.996Z,90.90
2019-03-21T03:38:48.670Z,90.90
2019-03-21T03:41:19.443Z,91.10
2019-03-21T03:43:50.241Z,91.10
2019-03-21T03:46:20.981Z,91.20
2019-03-21T03:48:51.703Z,91.20
2019-03-21T03:51:22.393Z,91.30
2019-03-21T03:53:53.098Z,91.50
2019-03-21T03:56:23.971Z,91.40
2019-03-21T03:58:55.012Z,91.50
2019-03-21T04:01:26.771Z,91.50
2019-03-21T04:03:57.661Z,91.70
2019-03-21T04:06:30.177Z,91.80
2019-03-21T04:09:00.892Z,91.70
2019-03-21T04:11:31.759Z,91.90
2019-03-21T04:14:02.551Z,91.90
2019-03-21T04:16:33.335Z,91.90
2019-03-21T04:19:04.143Z,92.10
2019-03-21T04:21:35.076Z,92.10
2019-03-21T04:24:06.882Z,92.30
2019-03-21T04:26:39.312Z,92.30
2019-03-21T04:29:10.041Z,92.30
2019-03-21T04:31:40.753Z,92.40
2019-03-21T04:34:11.571Z,92.40
2019-03-21T04:36:42.299Z,92.60
2019-03-21T04:39:13.771Z,92.70
2019-03-21T04:41:44.907Z,92.80
2019-03-21T04:44:15.707Z,92.80
2019-03-21T04:46:48.866Z,92.70
2019-03-21T04:49:19.479Z,92.80
2019-03-21T04:51:51.605Z,93.00
2019-03-21T04:54:22.243Z,93.20
2019-03-21T04:56:52.960Z,93.10
2019-03-21T04:59:23.777Z,93.20
2019-03-21T05:01:54.387Z,93.30
2019-03-21T05:04:24.999Z,93.40
2019-03-21T05:06:55.662Z,93.50
2019-03-21T05:09:26.511Z,93.50
2019-03-21T05:11:57.253Z,93.50
2019-03-21T05:14:29.187Z,93.80
2019-03-21T05:16:59.801Z,93.70
2019-03-21T05:19:30.535Z,93.90
2019-03-21T05:22:01.171Z,93.90
2019-03-21T05:24:33.241Z,93.90
2019-03-21T05:27:03.803Z,94.10
2019-03-21T05:29:36.247Z,94.00
2019-03-21T05:32:06.876Z,94.00
2019-03-21T05:34:37.541Z,94.20
2019-03-21T05:37:08.415Z,94.30
2019-03-21T05:39:40.057Z,94.30
2019-03-21T05:42:15.311Z,94.40
2019-03-21T05:44:45.954Z,94.40
2019-03-21T05:47:17.758Z,94.50
2019-03-21T05:49:50.322Z,94.50
2019-03-21T05:52:20.972Z,94.70
2019-03-21T05:54:51.615Z,94.80
2019-03-21T05:57:22.222Z,94.90
2019-03-21T05:59:53.011Z,94.90
2019-03-21T06:02:23.775Z,94.90
2019-03-21T06:04:54.503Z,95.00
2019-03-21T06:07:55.623Z,95.00
2019-03-21T06:10:28.895Z,95.10
2019-03-21T06:13:00.555Z,95.20
2019-03-21T06:15:32.390Z,95.30
2019-03-21T06:18:40.797Z,95.30
2019-03-21T06:21:26.892Z,95.40
2019-03-21T06:24:16.696Z,95.40
2019-03-21T06:27:14.109Z,95.70
2019-03-21T06:29:39.830Z,95.70
2019-03-21T06:32:12.877Z,95.70
2019-03-21T06:34:42.827Z,95.80
2019-03-21T06:37:13.503Z,95.60
2019-03-21T06:39:44.775Z,95.70
2019-03-21T06:42:15.759Z,95.50
2019-03-21T06:44:46.532Z,95.70
2019-03-21T06:47:17.604Z,95.90
2019-03-21T06:49:52.896Z,95.90
2019-03-21T06:52:27.095Z,95.90
2019-03-21T06:55:01.754Z,95.90
2019-03-21T06:57:32.426Z,96.10
2019-03-21T07:00:03.146Z,96.20
2019-03-21T07:02:35.735Z,96.20
2019-03-21T07:05:07.504Z,96.20
2019-03-21T07:07:38.559Z,96.30
2019-03-21T07:10:10.682Z,96.40
2019-03-21T07:12:41.755Z,96.50
2019-03-21T07:15:14.875Z,96.60
2019-03-21T07:17:53.067Z,96.60
2019-03-21T07:20:24.661Z,96.50
2019-03-21T07:22:58.064Z,96.60
2019-03-21T07:25:30.361Z,96.60
2019-03-21T07:28:03.410Z,96.70
2019-03-21T07:30:34.096Z,96.60
2019-03-21T07:33:11.664Z,96.70
2019-03-21T07:35:45.872Z,96.90
2019-03-21T07:38:16.562Z,96.90
2019-03-21T07:40:48.894Z,97.20
2019-03-21T07:43:22.097Z,97.10
2019-03-21T07:45:51.791Z,97.10
2019-03-21T07:48:23.020Z,97.20
2019-03-21T07:50:56.122Z,97.30
2019-03-21T07:53:29.086Z,97.20
2019-03-21T07:56:00.392Z,96.80
2019-03-21T07:58:31.132Z,96.80
2019-03-21T08:01:05.041Z,96.70
2019-03-21T08:03:36.038Z,97.00
2019-03-21T08:06:09.266Z,96.70
2019-03-21T08:08:39.644Z,96.70
2019-03-21T08:11:10.365Z,96.40
2019-03-21T08:13:41.021Z,96.50
2019-03-21T08:16:11.791Z,96.20
2019-03-21T08:18:42.522Z,95.80
2019-03-21T08:21:19.489Z,95.70
2019-03-21T08:24:34.435Z,95.70
2019-03-21T08:28:00.033Z,95.70
2019-03-21T08:29:56.083Z,95.60
2019-03-21T08:33:39.169Z,95.20
2019-03-21T08:38:19.174Z,94.50
2019-03-21T08:40:51.495Z,94.60
2019-03-21T08:43:23.273Z,94.90
2019-03-21T08:45:53.861Z,94.30
2019-03-21T08:48:27.920Z,94.70
2019-03-21T08:51:08.293Z,94.00
2019-03-21T08:56:22.660Z,94.20
2019-03-21T08:58:56.161Z,94.00
2019-03-21T09:01:27.423Z,93.50
2019-03-21T09:03:58.111Z,93.50
2019-03-21T09:06:28.658Z,93.00
2019-03-21T09:09:00.461Z,93.10
2019-03-21T09:11:37.166Z,93.40
2019-03-21T09:14:08.060Z,93.50
2019-03-21T09:16:42.056Z,92.80
2019-03-21T09:19:14.051Z,92.20
2019-03-21T09:21:44.648Z,92.30
2019-03-21T09:24:15.443Z,92.50
2019-03-21T09:26:46.182Z,92.70
2019-03-21T09:29:16.806Z,92.30
2019-03-21T09:31:47.493Z,91.80
2019-03-21T09:34:19.202Z,90.80
2019-03-21T09:36:50.878Z,90.90
2019-03-21T09:39:22.008Z,91.10
2019-03-21T09:41:52.788Z,91.60
2019-03-21T09:44:27.724Z,91.80
2019-03-21T09:46:58.322Z,91.00
2019-03-21T09:49:29.483Z,90.50
2019-03-21T09:51:59.993Z,90.00
2019-03-21T09:54:30.521Z,89.00
2019-03-21T09:57:01.147Z,89.00
2019-03-21T09:59:31.798Z,89.40
2019-03-21T10:02:02.907Z,89.10
2019-03-21T10:04:33.480Z,89.10
2019-03-21T10:07:04.054Z,87.90
2019-03-21T10:09:34.624Z,86.70
2019-03-21T10:12:05.495Z,85.80
2019-03-21T10:14:36.214Z,82.60
2019-03-21T10:17:06.768Z,79.10
2019-03-21T10:19:37.277Z,74.00
2019-03-21T10:22:08.061Z,71.90
2019-03-21T10:24:38.786Z,72.30
2019-03-21T10:27:09.338Z,71.80
2019-03-21T10:29:39.902Z,73.40
2019-03-21T10:32:14.458Z,71.60
2019-03-21T10:34:42.954Z,70.00
2019-03-21T10:37:13.632Z,71.50
2019-03-21T10:39:44.266Z,74.00
2019-03-21T10:42:14.802Z,69.00
2019-03-21T10:44:45.783Z,68.80
2019-03-21T10:47:16.598Z,68.20
2019-03-21T10:49:47.278Z,69.40
2019-03-21T10:52:17.873Z,70.90
2019-03-21T10:54:48.415Z,65.60
2019-03-21T10:57:18.971Z,61.20
2019-03-21T10:59:49.557Z,55.10
2019-03-21T11:02:29.317Z,47.10
2019-03-21T11:04:59.888Z,46.10
2019-03-21T11:07:30.393Z,48.70
2019-03-21T11:10:01.030Z,51.00
2019-03-21T11:12:32.733Z,52.30
2019-03-21T11:15:03.384Z,50.40
2019-03-21T11:17:35.090Z,49.00
2019-03-21T11:20:13.623Z,47.40
2019-03-21T11:22:44.438Z,44.20
2019-03-21T11:25:15.114Z,45.40
2019-03-21T11:27:45.768Z,48.10
2019-03-21T11:30:19.335Z,50.60
2019-03-21T11:32:50.060Z,53.10
2019-03-21T11:35:20.640Z,55.90
2019-03-21T11:37:51.402Z,58.90
2019-03-21T11:40:22.086Z,61.10
2019-03-21T11:42:54.327Z,62.60
2019-03-21T11:45:25.103Z,63.90
2019-03-21T11:47:55.865Z,63.90
2019-03-21T11:50:26.587Z,59.60
2019-03-21T11:52:57.274Z,54.70
2019-03-21T11:55:27.999Z,51.10
2019-03-21T11:57:58.662Z,48.20
2019-03-21T12:00:29.429Z,47.60
2019-03-21T12:03:00.255Z,46.60
2019-03-21T12:05:30.832Z,49.00
2019-03-21T12:08:01.483Z,47.40
2019-03-21T12:10:32.080Z,47.20
2019-03-21T12:13:02.806Z,46.60
2019-03-21T12:15:33.573Z,47.00
2019-03-21T12:18:04.376Z,48.30
2019-03-21T12:20:35.776Z,51.00
2019-03-21T12:23:06.594Z,52.80
2019-03-21T12:25:37.301Z,54.20
2019-03-21T12:28:07.994Z,54.80
2019-03-21T12:30:40.427Z,55.40
2019-03-21T12:33:11.271Z,55.60
2019-03-21T12:35:42.065Z,55.20
2019-03-21T12:38:13.967Z,55.50
2019-03-21T12:40:44.658Z,56.20
2019-03-21T12:43:15.442Z,57.20
2019-03-21T12:45:46.148Z,57.70
2019-03-21T12:48:16.802Z,57.50
2019-03-21T12:50:47.553Z,58.00
2019-03-21T12:53:18.141Z,58.10
2019-03-21T12:55:48.792Z,56.70
2019-03-21T12:58:19.385Z,57.10
2019-03-21T13:00:50.110Z,56.70
2019-03-21T13:03:20.734Z,56.50
2019-03-21T13:05:53.397Z,57.20
2019-03-21T13:08:33.278Z,58.10
2019-03-21T13:10:56.337Z,59.00
2019-03-21T13:13:26.961Z,57.60
2019-03-21T13:15:57.535Z,57.00
2019-03-21T13:18:28.181Z,57.30
2019-03-21T13:20:59.462Z,57.60
2019-03-21T13:23:30.488Z,57.40
2019-03-21T13:26:01.273Z,58.10
2019-03-21T13:28:31.860Z,58.30
2019-03-21T13:31:02.516Z,57.80
2019-03-21T13:33:35.198Z,57.00
2019-03-21T13:36:06.222Z,55.90
2019-03-21T13:38:37.003Z,55.90
2019-03-21T13:41:07.769Z,54.70
2019-03-21T13:43:39.496Z,54.20
2019-03-21T13:46:10.222Z,53.60
2019-03-21T13:48:40.782Z,53.20
2019-03-21T13:51:11.455Z,53.00
2019-03-21T13:53:42.134Z,53.40
2019-03-21T13:56:12.823Z,54.70
2019-03-21T13:58:46.557Z,55.80
2019-03-21T14:01:16.897Z,56.00
2019-03-21T14:03:47.447Z,56.40
2019-03-21T14:06:18.120Z,56.80
2019-03-21T14:08:48.684Z,56.50
2019-03-21T14:11:19.495Z,56.90
2019-03-21T14:13:51.286Z,56.70
2019-03-21T14:16:21.932Z,56.40
2019-03-21T14:18:53.003Z,56.70
2019-03-21T14:21:24.273Z,56.60
2019-03-21T14:23:54.981Z,56.30
2019-03-21T14:26:25.618Z,56.70
2019-03-21T14:28:56.347Z,56.60
2019-03-21T14:31:26.916Z,57.30
2019-03-21T14:33:57.440Z,58.10
2019-03-21T14:36:28.130Z,58.70
2019-03-21T14:38:58.743Z,58.90
2019-03-21T14:41:29.242Z,58.30
2019-03-21T14:44:00.041Z,58.70
2019-03-21T14:46:30.515Z,58.00
2019-03-21T14:49:01.186Z,57.80
2019-03-21T14:51:32.427Z,57.70
2019-03-21T14:54:03.030Z,58.60
2019-03-21T14:56:33.685Z,59.20
2019-03-21T14:59:04.481Z,59.30
2019-03-21T15:01:35.137Z,59.90
2019-03-21T15:04:17.260Z,60.60
2019-03-21T15:06:47.955Z,61.20
2019-03-21T15:09:18.459Z,61.80
2019-03-21T15:11:49.181Z,62.10
2019-03-21T15:14:19.813Z,62.70
2019-03-21T15:16:50.612Z,63.00
2019-03-21T15:19:21.151Z,63.60
2019-03-21T15:21:51.716Z,64.10
2019-03-21T15:24:22.307Z,64.70
2019-03-21T15:26:53.014Z,65.10
2019-03-21T15:29:35.686Z,65.60
2019-03-21T15:32:07.402Z,65.90
2019-03-21T15:34:37.956Z,66.20
2019-03-21T15:37:08.712Z,66.90
2019-03-21T15:39:39.349Z,67.40
2019-03-21T15:42:10.260Z,67.80
2019-03-21T15:44:40.971Z,68.30
2019-03-21T15:47:11.804Z,68.60
2019-03-21T15:49:42.494Z,69.00
2019-03-21T15:52:13.027Z,69.50
2019-03-21T15:54:45.301Z,70.00
2019-03-21T15:57:16.093Z,70.30
2019-03-21T15:59:46.687Z,70.50
2019-03-21T16:02:17.356Z,71.10
2019-03-21T16:04:48.815Z,71.60
2019-03-21T16:07:24.245Z,72.10
2019-03-21T16:10:17.749Z,72.70
2019-03-21T16:12:52.620Z,73.40
2019-03-21T16:15:57.112Z,74.10
2019-03-21T16:18:50.262Z,74.50
2019-03-21T16:21:39.721Z,75.20
2019-03-21T16:24:22.284Z,76.20
2019-03-21T16:27:07.754Z,76.60
2019-03-21T16:29:43.007Z,77.30
2019-03-21T16:32:13.595Z,77.80
2019-03-21T16:34:47.993Z,78.50
2019-03-21T16:37:31.014Z,78.60
2019-03-21T16:40:16.944Z,78.90
2019-03-21T16:42:48.951Z,79.30
2019-03-21T16:45:21.191Z,79.60
2019-03-21T16:47:52.035Z,80.00
2019-03-21T16:50:22.783Z,80.30
2019-03-21T16:52:54.459Z,80.60
2019-03-21T16:55:26.339Z,80.90
2019-03-21T16:57:57.046Z,81.30
2019-03-21T17:00:30.801Z,81.40
2019-03-21T17:03:01.681Z,81.90
2019-03-21T17:05:33.079Z,82.00
2019-03-21T17:08:11.319Z,81.90
2019-03-21T17:10:36.166Z,82.10
2019-03-21T17:13:07.516Z,82.20
2019-03-21T17:15:38.529Z,82.50
2019-03-21T17:18:09.379Z,82.60
2019-03-21T17:20:39.932Z,82.90
2019-03-21T17:23:13.809Z,83.00
2019-03-21T17:25:46.056Z,83.20
2019-03-21T17:28:16.857Z,83.40
2019-03-21T17:30:48.103Z,83.40
2019-03-21T17:33:24.037Z,83.50
2019-03-21T17:36:01.801Z,83.70
2019-03-21T17:38:35.319Z,84.00
2019-03-21T17:41:06.109Z,84.20
2019-03-21T17:43:38.892Z,84.50
2019-03-21T17:46:09.511Z,84.60
2019-03-21T17:48:40.337Z,84.70
2019-03-21T17:51:10.910Z,85.00
2019-03-21T17:53:41.628Z,85.30
2019-03-21T17:56:12.497Z,85.50
2019-03-21T17:58:43.237Z,85.90
2019-03-21T18:01:14.106Z,86.10
2019-03-21T18:03:45.128Z,86.30
2019-03-21T18:06:15.785Z,86.80
2019-03-21T18:08:46.648Z,87.20
2019-03-21T18:11:17.480Z,87.20
2019-03-21T18:13:48.113Z,87.40
2019-03-21T18:16:18.852Z,87.90
2019-03-21T18:18:49.417Z,88.10
2019-03-21T18:21:20.011Z,88.30
2019-03-21T18:23:50.764Z,89.00
2019-03-21T18:26:21.590Z,89.10
2019-03-21T18:28:52.234Z,89.30
2019-03-21T18:31:22.928Z,89.60
2019-03-21T18:33:53.650Z,89.40
2019-03-21T18:36:24.327Z,89.70
2019-03-21T18:38:59.525Z,89.90
2019-03-21T18:41:27.525Z,90.00
2019-03-21T18:43:58.207Z,90.10
2019-03-21T18:46:28.898Z,90.10
2019-03-21T18:48:59.856Z,90.20
2019-03-21T18:51:30.788Z,90.30
2019-03-21T18:54:01.414Z,90.30
2019-03-21T18:56:32.199Z,90.40
2019-03-21T18:59:08.222Z,90.50
2019-03-21T19:01:39.480Z,90.60
2019-03-21T19:04:11.196Z,90.80
2019-03-21T19:06:41.902Z,90.80
2019-03-21T19:09:12.573Z,91.10
2019-03-21T19:11:43.676Z,91.20
2019-03-21T19:14:14.506Z,91.30
2019-03-21T19:16:46.418Z,91.50
2019-03-21T19:19:18.997Z,91.80
2019-03-21T19:21:49.797Z,92.00
2019-03-21T19:24:20.555Z,92.20
2019-03-21T19:26:51.928Z,92.30
2019-03-21T19:29:25.124Z,92.60
2019-03-21T19:31:56.583Z,92.90
2019-03-21T19:34:27.864Z,92.80
2019-03-21T19:37:00.861Z,92.90
2019-03-21T19:39:32.110Z,92.90
2019-03-21T19:42:06.014Z,93.00
2019-03-21T19:44:38.247Z,93.20
2019-03-21T19:47:10.587Z,93.20
2019-03-21T19:49:57.684Z,93.20
2019-03-21T19:52:38.480Z,93.60
2019-03-21T19:55:29.711Z,93.70
2019-03-21T19:57:57.690Z,93.70
2019-03-21T20:00:34.354Z,94.00
2019-03-21T20:03:07.876Z,94.10
2019-03-21T20:05:45.029Z,94.20
2019-03-21T20:08:22.692Z,94.30
2019-03-21T20:11:08.937Z,94.60
2019-03-21T20:13:48.404Z,94.70
2019-03-21T20:16:28.051Z,94.80
2019-03-21T20:19:02.982Z,94.90
2019-03-21T20:21:47.867Z,95.00
2019-03-21T20:24:23.122Z,95.10
2019-03-21T20:27:00.360Z,95.20
2019-03-21T20:29:38.187Z,95.40
2019-03-21T20:32:29.786Z,95.40
2019-03-21T20:35:14.152Z,95.50
2019-03-21T20:40:45.495Z,95.70
2019-03-21T20:43:23.923Z,95.90
2019-03-21T20:46:27.098Z,95.90
2019-03-21T20:49:02.244Z,96.00
2019-03-21T20:52:15.804Z,96.00
2019-03-21T20:55:00.524Z,96.40
2019-03-21T20:57:58.797Z,96.20
2019-03-21T21:00:48.133Z,96.40
2019-03-21T21:03:31.907Z,96.50
2019-03-21T21:06:30.707Z,96.60
2019-03-21T21:09:49.677Z,96.50
2019-03-21T21:12:52.457Z,96.60
2019-03-21T21:15:56.146Z,96.90
2019-03-21T21:18:26.790Z,96.80
2019-03-21T21:20:57.513Z,97.00
2019-03-21T21:23:28.505Z,96.90
2019-03-21T21:26:05.390Z,97.00
2019-03-21T21:28:31.527Z,97.10
2019-03-21T21:31:02.406Z,97.20
2019-03-21T21:33:33.123Z,97.20
2019-03-21T21:36:03.852Z,97.30
2019-03-21T21:38:34.478Z,97.60
2019-03-21T21:41:05.143Z,97.30
2019-03-21T21:43:35.849Z,97.40
2019-03-21T21:46:09.008Z,97.50
2019-03-21T21:48:39.712Z,97.50
2019-03-21T21:51:10.492Z,97.60
2019-03-21T21:53:41.179Z,97.60
2019-03-21T21:56:17.665Z,97.60
2019-03-21T21:58:45.436Z,97.80
2019-03-21T22:01:16.425Z,97.80
2019-03-21T22:03:47.146Z,97.80
2019-03-21T22:06:17.852Z,97.90
2019-03-21T22:08:48.545Z,97.90
2019-03-21T22:11:19.207Z,98.00
2019-03-21T22:13:49.987Z,98.00
2019-03-21T22:16:20.789Z,98.00
2019-03-21T22:18:51.348Z,98.00
2019-03-21T22:21:22.054Z,98.10
2019-03-21T22:23:52.793Z,98.20
2019-03-21T22:26:29.544Z,98.10
2019-03-21T22:28:55.654Z,98.20
2019-03-21T22:31:27.942Z,98.20
2019-03-21T22:33:58.446Z,98.20
2019-03-21T22:36:29.065Z,98.30
2019-03-21T22:38:59.625Z,98.70
2019-03-21T22:41:30.276Z,98.40
2019-03-21T22:44:00.832Z,98.40
2019-03-21T22:46:31.438Z,98.40
2019-03-21T22:49:01.949Z,98.40
2019-03-21T22:51:32.482Z,98.50
2019-03-21T22:54:03.049Z,98.60
2019-03-21T22:56:41.172Z,98.60
2019-03-21T22:59:06.097Z,98.60
2019-03-21T23:01:37.305Z,98.60
2019-03-21T23:04:08.158Z,98.80
2019-03-21T23:06:39.985Z,98.70
2019-03-21T23:09:10.665Z,98.60
2019-03-21T23:11:41.295Z,98.80
2019-03-21T23:14:11.946Z,98.80
2019-03-21T23:16:42.866Z,98.80
2019-03-21T23:19:13.405Z,98.80
2019-03-21T23:21:46.046Z,98.90
2019-03-21T23:24:16.528Z,99.20
2019-03-21T23:26:52.901Z,99.00
2019-03-21T23:29:19.566Z,99.10
2019-03-21T23:31:50.226Z,99.10
2019-03-21T23:34:20.974Z,99.20
2019-03-21T23:40:09.925Z,99.20
2019-03-21T23:42:40.478Z,99.20
2019-03-21T23:45:11.666Z,99.30
2019-03-21T23:47:42.589Z,99.40
2019-03-21T23:50:14.049Z,99.30
2019-03-21T23:52:45.207Z,99.40
2019-03-21T23:55:16.115Z,99.40
2019-03-21T23:57:46.698Z,99.40
